Time;durP1;ratioP1;P1;durP2;ratioP2;P2;SDS_P1;SDS_P2;PMS_P1;PMS_P2;Temp;Humidity;BMP_temperature;BMP_pressure;BME280_temperature;BME280_humidity;BME280_pressure;Samples;Min_cycle;Max_cycle;Signal;HPM_P1;HPM_P2
2022/09/01 04:01:32;;;;;;;0.80;0.80;;;12.30;99.90;;;;;;5492497;23;20286;-72
2022/09/01 04:04:00;;;;;;;1.10;1.10;;;12.30;99.90;;;;;;4986047;28;20222;-71
2022/09/01 04:06:29;;;;;;;1.15;1.15;;;12.30;99.90;;;;;;4976327;28;20647;-73
2022/09/01 04:09:01;;;;;;;1.55;1.48;;;12.30;99.90;;;;;;4975612;28;20238;-72
2022/09/01 04:11:28;;;;;;;0.70;0.70;;;12.20;99.90;;;;;;4967064;28;20581;-72
2022/09/01 04:13:55;;;;;;;0.70;0.70;;;12.20;99.90;;;;;;4956963;29;20252;-71
2022/09/01 04:19:18;;;;;;;1.75;1.65;;;12.20;99.90;;;;;;4994126;28;20279;-73
2022/09/01 04:21:46;;;;;;;1.27;1.27;;;12.20;99.90;;;;;;4993526;28;20374;-74
2022/09/01 04:24:13;;;;;;;1.33;1.33;;;12.20;99.90;;;;;;4993971;28;20214;-74
2022/09/01 04:26:40;;;;;;;1.10;1.10;;;12.20;99.90;;;;;;4993675;28;20705;-74
2022/09/01 04:29:10;;;;;;;1.05;1.05;;;12.20;99.90;;;;;;4993965;28;20240;-73
2022/09/01 04:31:38;;;;;;;0.75;0.75;;;12.20;99.90;;;;;;4993588;28;20230;-74
2022/09/01 04:34:12;;;;;;;1.08;1.08;;;12.10;99.90;;;;;;4993954;28;20207;-74
2022/09/01 04:36:42;;;;;;;0.63;0.63;;;12.10;99.90;;;;;;4987735;28;20231;-74
2022/09/01 04:39:11;;;;;;;1.30;1.30;;;12.10;99.90;;;;;;4981575;28;20209;-74
2022/09/01 04:41:41;;;;;;;1.40;1.40;;;12.10;99.90;;;;;;4982256;28;20212;-74
2022/09/01 04:44:08;;;;;;;0.77;0.77;;;12.10;99.90;;;;;;4974370;28;20216;-74
2022/09/01 04:46:41;;;;;;;0.68;0.68;;;12.00;99.90;;;;;;4973781;28;20670;-74
2022/09/01 04:49:09;;;;;;;0.98;0.98;;;12.00;99.90;;;;;;4974061;28;20665;-73
2022/09/01 04:51:38;;;;;;;4.18;1.70;;;12.00;99.90;;;;;;4979432;28;20217;-74
2022/09/01 04:54:11;;;;;;;1.55;1.55;;;12.00;99.90;;;;;;4993395;28;20304;-73
2022/09/01 04:56:38;;;;;;;1.10;1.10;;;12.00;99.90;;;;;;4993233;28;20716;-73
2022/09/01 04:59:06;;;;;;;1.20;1.20;;;12.10;99.90;;;;;;4993426;28;20673;-75
2022/09/01 05:01:42;;;;;;;1.23;1.08;;;12.10;99.90;;;;;;4991663;28;20228;-74
2022/09/01 05:04:11;;;;;;;0.85;0.85;;;12.10;99.90;;;;;;4993243;28;20210;-74
2022/09/01 05:06:40;;;;;;;1.35;1.35;;;12.10;99.90;;;;;;4988749;28;20240;-74
2022/09/01 05:09:10;;;;;;;2.15;1.75;;;12.10;99.90;;;;;;4980580;28;20231;-74
2022/09/01 05:11:37;;;;;;;1.77;1.67;;;12.20;99.90;;;;;;4981508;28;20246;-74
2022/09/01 05:14:05;;;;;;;1.95;1.95;;;12.20;99.90;;;;;;4973442;28;20214;-74
2022/09/01 05:16:33;;;;;;;1.50;1.50;;;12.20;99.90;;;;;;4972874;28;20234;-74
2022/09/01 05:19:02;;;;;;;1.90;1.80;;;12.20;99.90;;;;;;4973454;28;20979;-74
2022/09/01 05:21:29;;;;;;;1.25;1.25;;;12.30;99.90;;;;;;4973124;28;20225;-74
2022/09/01 05:23:59;;;;;;;1.85;1.85;;;12.30;99.90;;;;;;4985020;28;20214;-74
2022/09/01 05:26:30;;;;;;;1.20;1.20;;;12.40;99.90;;;;;;4990926;28;20229;-74
2022/09/01 05:28:59;;;;;;;1.80;1.70;;;12.40;99.90;;;;;;4992663;28;20260;-74
2022/09/01 05:31:36;;;;;;;2.17;2.00;;;12.50;99.90;;;;;;4992148;28;20222;-74
2022/09/01 05:34:03;;;;;;;1.45;1.45;;;12.50;99.90;;;;;;4992582;28;20751;-73
2022/09/01 05:36:32;;;;;;;1.35;1.35;;;12.60;99.90;;;;;;4990710;28;20644;-74
2022/09/01 05:38:59;;;;;;;1.75;1.67;;;12.60;99.90;;;;;;4987319;28;20547;-73
2022/09/01 05:41:27;;;;;;;2.08;1.98;;;12.70;99.90;;;;;;4982371;28;20219;-74
2022/09/01 05:43:55;;;;;;;1.85;1.85;;;12.70;99.90;;;;;;4972761;28;20212;-73
2022/09/01 05:46:25;;;;;;;1.45;1.45;;;12.80;99.90;;;;;;4977055;28;20229;-73
2022/09/01 05:48:53;;;;;;;1.67;1.67;;;12.80;99.90;;;;;;4974689;28;20245;-74
2022/09/01 05:51:24;;;;;;;1.88;1.88;;;12.90;99.90;;;;;;4972634;28;20215;-71
2022/09/01 05:53:54;;;;;;;1.75;1.75;;;12.90;99.90;;;;;;4979730;28;20240;-74
2022/09/01 05:56:22;;;;;;;1.50;1.50;;;12.90;99.90;;;;;;4980546;28;20243;-74
2022/09/01 05:58:52;;;;;;;1.33;1.33;;;13.00;99.90;;;;;;4972951;28;20214;-73
2022/09/01 06:01:21;;;;;;;2.80;1.73;;;13.00;99.90;;;;;;4972325;28;20296;-74
2022/09/01 06:03:49;;;;;;;1.50;1.50;;;13.00;99.90;;;;;;4972759;28;20666;-74
2022/09/01 06:06:16;;;;;;;1.73;1.73;;;13.10;99.90;;;;;;4971952;28;20265;-73
2022/09/01 06:08:48;;;;;;;2.30;2.20;;;13.10;99.90;;;;;;4972011;28;20205;-74
2022/09/01 06:11:16;;;;;;;1.60;1.60;;;13.20;99.90;;;;;;4983305;28;20216;-74
2022/09/01 06:13:45;;;;;;;1.70;1.70;;;13.20;99.90;;;;;;4992527;28;20562;-74
2022/09/01 06:16:16;;;;;;;1.70;1.67;;;13.30;99.90;;;;;;4991409;28;20283;-74
2022/09/01 06:18:43;;;;;;;1.60;1.60;;;13.30;99.90;;;;;;4991794;28;20702;-74
2022/09/01 06:21:13;;;;;;;2.00;1.97;;;13.40;99.90;;;;;;4992173;28;20213;-73
2022/09/01 06:23:41;;;;;;;2.38;1.90;;;13.40;99.90;;;;;;4991705;28;20868;-74
2022/09/01 06:26:16;;;;;;;2.00;1.90;;;13.50;99.90;;;;;;4989787;28;20593;-74
2022/09/01 06:28:43;;;;;;;1.00;1.00;;;13.50;99.90;;;;;;4984081;28;20288;-74
2022/09/01 06:31:11;;;;;;;1.37;1.37;;;13.60;99.90;;;;;;4977271;28;20494;-74
2022/09/01 06:33:39;;;;;;;2.20;1.53;;;13.70;99.90;;;;;;4971797;28;20472;-74
2022/09/01 06:36:08;;;;;;;1.40;1.40;;;13.80;99.90;;;;;;4971379;28;20603;-75
2022/09/01 06:38:36;;;;;;;1.70;1.53;;;13.80;99.90;;;;;;4972362;28;20495;-75
2022/09/01 06:41:04;;;;;;;1.80;1.80;;;13.90;99.90;;;;;;4972356;28;20509;-75
2022/09/01 06:43:31;;;;;;;1.67;1.67;;;14.00;99.90;;;;;;4983767;28;20479;-74
2022/09/01 06:46:01;;;;;;;1.10;1.10;;;14.00;99.90;;;;;;4985349;28;20485;-75
2022/09/01 06:48:29;;;;;;;1.23;1.23;;;14.10;99.90;;;;;;4991235;28;20261;-73
2022/09/01 06:50:59;;;;;;;1.13;1.13;;;14.20;99.90;;;;;;4990804;28;20492;-73
2022/09/01 06:53:27;;;;;;;1.20;1.20;;;14.30;99.90;;;;;;4991220;28;20555;-74
2022/09/01 06:55:55;;;;;;;1.20;1.20;;;14.30;99.90;;;;;;4991159;28;20486;-74
2022/09/01 06:58:21;;;;;;;0.90;0.90;;;14.40;99.90;;;;;;4990671;28;20876;-74
2022/09/01 07:00:48;;;;;;;1.67;1.57;;;14.50;99.90;;;;;;4983237;28;20461;-74
2022/09/01 07:03:16;;;;;;;1.20;1.20;;;14.60;99.90;;;;;;4991172;28;20472;-73
2022/09/01 07:05:45;;;;;;;1.23;1.20;;;14.70;99.90;;;;;;4991370;28;20484;-73
2022/09/01 07:08:18;;;;;;;0.90;0.90;;;14.80;99.90;;;;;;4991259;28;20469;-73
2022/09/01 07:10:48;;;;;;;0.93;0.93;;;14.90;99.90;;;;;;4991242;28;20524;-73
2022/09/01 07:13:18;;;;;;;0.60;0.60;;;14.90;99.90;;;;;;4990888;28;20477;-74
2022/09/01 07:15:48;;;;;;;0.60;0.60;;;15.00;99.90;;;;;;4981194;28;20555;-74
2022/09/01 07:18:16;;;;;;;0.60;0.60;;;15.10;99.90;;;;;;4974764;28;20572;-74
2022/09/01 07:20:47;;;;;;;0.70;0.70;;;15.30;99.90;;;;;;4971991;28;20936;-74
2022/09/01 07:23:16;;;;;;;0.40;0.40;;;15.40;99.90;;;;;;4971772;28;20967;-73
2022/09/01 07:25:46;;;;;;;3.40;0.40;;;15.50;99.90;;;;;;4974339;28;20980;-74
2022/09/01 07:28:14;;;;;;;0.60;0.60;;;15.60;99.90;;;;;;4975680;28;20463;-74
2022/09/01 07:30:44;;;;;;;0.73;0.73;;;15.80;99.90;;;;;;4979332;28;20525;-74
2022/09/01 07:33:11;;;;;;;0.60;0.50;;;15.90;99.90;;;;;;4987063;28;20501;-74
2022/09/01 07:35:40;;;;;;;1.37;1.37;;;16.00;99.90;;;;;;4995165;28;20483;-74
2022/09/01 07:38:08;;;;;;;1.20;0.57;;;16.10;99.90;;;;;;4994601;28;20469;-73
2022/09/01 07:40:38;;;;;;;0.60;0.60;;;16.30;99.90;;;;;;4994978;28;20461;-74
2022/09/01 07:43:07;;;;;;;0.40;0.40;;;16.40;99.90;;;;;;4994574;28;20485;-74
2022/09/01 07:45:36;;;;;;;0.27;0.27;;;16.50;99.90;;;;;;4994975;28;20496;-73
2022/09/01 07:48:05;;;;;;;0.47;0.47;;;16.60;99.90;;;;;;4991965;28;20472;-74
2022/09/01 07:50:33;;;;;;;0.57;0.57;;;16.60;99.90;;;;;;4984485;28;20485;-74
2022/09/01 07:53:00;;;;;;;0.47;0.47;;;16.80;99.90;;;;;;4974381;28;20466;-74
2022/09/01 07:55:27;;;;;;;0.60;0.60;;;16.90;99.90;;;;;;4976883;28;20480;-73
2022/09/01 07:57:57;;;;;;;0.50;0.50;;;17.00;99.90;;;;;;4976782;28;20495;-73
2022/09/01 08:00:24;;;;;;;0.30;0.30;;;17.10;99.90;;;;;;4985940;28;20499;-73
2022/09/01 08:02:51;;;;;;;0.47;0.47;;;17.20;99.90;;;;;;4989867;28;20458;-73
2022/09/01 08:05:21;;;;;;;0.30;0.30;;;17.30;99.90;;;;;;4997455;28;20510;-73
2022/09/01 08:07:48;;;;;;;0.20;0.20;;;17.50;99.90;;;;;;4997439;28;20452;-71
2022/09/01 08:10:16;;;;;;;0.30;0.30;;;17.60;99.90;;;;;;4998163;28;20562;-73
2022/09/01 08:12:43;;;;;;;0.73;0.73;;;17.70;99.90;;;;;;4998795;28;20461;-73
2022/09/01 08:15:12;;;;;;;0.40;0.40;;;17.70;99.90;;;;;;4993045;28;20462;-72
2022/09/01 08:17:40;;;;;;;1.03;0.47;;;17.80;99.90;;;;;;4986140;28;20468;-73
2022/09/01 08:20:08;;;;;;;3.30;0.60;;;18.00;99.90;;;;;;4987404;28;20461;-73
2022/09/01 08:22:36;;;;;;;0.97;0.20;;;18.10;99.90;;;;;;4992451;28;20959;-73
2022/09/01 08:25:04;;;;;;;0.30;0.30;;;18.20;99.90;;;;;;5001964;28;20504;-73
2022/09/01 08:27:32;;;;;;;0.30;0.30;;;18.20;99.90;;;;;;5002344;28;20472;-73
2022/09/01 08:30:00;;;;;;;0.63;0.33;;;18.30;99.90;;;;;;4993143;28;20508;-74
2022/09/01 08:32:28;;;;;;;0.20;0.20;;;18.40;99.90;;;;;;4994222;28;20997;-73
2022/09/01 08:34:55;;;;;;;11.53;0.50;;;18.40;99.90;;;;;;4994285;28;20469;-73
2022/09/01 08:37:23;;;;;;;1.03;0.40;;;18.50;99.90;;;;;;4993537;28;20485;-74
2022/09/01 08:39:50;;;;;;;0.30;0.30;;;18.60;99.90;;;;;;4994233;28;20468;-73
2022/09/01 08:42:28;;;;;;;0.20;0.20;;;18.60;99.90;;;;;;4989598;28;20964;-73
2022/09/01 08:45:01;;;;;;;0.40;0.40;;;18.70;99.90;;;;;;4987738;28;20567;-73
2022/09/01 08:47:31;;;;;;;0.30;0.30;;;18.70;99.90;;;;;;4993163;28;20472;-73
2022/09/01 08:49:59;;;;;;;0.30;0.30;;;18.80;99.90;;;;;;4993638;28;20492;-73
2022/09/01 08:52:30;;;;;;;0.40;0.40;;;18.90;99.90;;;;;;4993182;28;20477;-73
2022/09/01 08:55:02;;;;;;;0.20;0.20;;;18.90;99.90;;;;;;4993345;28;20473;-73
2022/09/01 08:57:34;;;;;;;0.17;0.17;;;19.00;99.90;;;;;;4991940;28;20560;-73
2022/09/01 09:00:01;;;;;;;0.30;0.30;;;19.00;99.90;;;;;;4988001;28;20554;-73
2022/09/01 09:02:40;;;;;;;0.50;0.50;;;19.20;99.90;;;;;;4975553;28;20497;-73
2022/09/01 09:05:21;;;;;;;0.20;0.20;;;19.20;99.90;;;;;;4975336;28;20494;-73
2022/09/01 09:08:10;;;;;;;0.20;0.20;;;19.20;99.90;;;;;;4974945;28;21158;-74
2022/09/01 09:10:46;;;;;;;0.37;0.37;;;19.20;99.90;;;;;;4974724;28;20534;-73
2022/09/01 09:13:21;;;;;;;0.20;0.20;;;19.20;99.90;;;;;;4973836;28;20472;-73
2022/09/01 09:15:56;;;;;;;0.30;0.30;;;19.20;99.90;;;;;;4975246;28;20620;-73
2022/09/01 09:18:42;;;;;;;0.23;0.23;;;19.40;99.90;;;;;;4990860;28;20465;-73
2022/09/01 09:21:15;;;;;;;0.20;0.20;;;19.40;99.90;;;;;;4980600;28;20484;-74
2022/09/01 09:23:46;;;;;;;0.80;0.80;;;19.50;99.90;;;;;;4973981;28;20973;-72
2022/09/01 09:26:13;;;;;;;0.23;0.23;;;19.60;99.90;;;;;;4974165;28;20494;-73
2022/09/01 09:28:39;;;;;;;0.30;0.30;;;19.60;99.90;;;;;;4973359;28;20471;-73
2022/09/01 09:31:26;;;;;;;0.30;0.30;;;19.60;99.90;;;;;;4977260;28;20549;-73
2022/09/01 09:33:54;;;;;;;0.20;0.20;;;19.70;99.90;;;;;;4986379;28;20464;-72
2022/09/01 09:36:24;;;;;;;0.20;0.20;;;19.80;99.90;;;;;;4992102;28;20485;-73
2022/09/01 09:39:05;;;;;;;0.30;0.30;;;19.90;99.90;;;;;;4993006;28;20466;-73
2022/09/01 09:41:32;;;;;;;0.37;0.37;;;19.90;99.90;;;;;;4992431;28;20462;-73
2022/09/01 09:44:05;;;;;;;0.20;0.20;;;19.90;99.90;;;;;;4992413;28;20481;-73
2022/09/01 09:46:36;;;;;;;0.20;0.20;;;20.00;99.90;;;;;;4991947;28;21046;-73
2022/09/01 09:49:10;;;;;;;0.30;0.30;;;20.00;99.90;;;;;;4985301;28;20474;-74
2022/09/01 09:51:39;;;;;;;0.30;0.30;;;20.10;99.90;;;;;;4983295;28;20486;-74
2022/09/01 09:54:21;;;;;;;0.63;0.63;;;20.20;99.90;;;;;;4972904;28;20485;-73
2022/09/01 09:56:53;;;;;;;0.83;0.83;;;20.30;99.90;;;;;;4973507;28;20595;-72
2022/09/01 09:59:27;;;;;;;0.43;0.43;;;20.30;99.90;;;;;;4981133;28;20468;-73
2022/09/01 10:01:57;;;;;;;0.27;0.27;;;20.30;99.90;;;;;;4978275;28;20469;-74
2022/09/01 10:04:37;;;;;;;0.20;0.20;;;20.30;99.90;;;;;;4972547;28;20820;-74
2022/09/01 10:07:24;;;;;;;0.20;0.20;;;20.40;99.90;;;;;;4971971;28;20977;-72
2022/09/01 10:09:51;;;;;;;0.20;0.20;;;20.40;99.90;;;;;;4972732;28;20459;-73
2022/09/01 10:12:18;;;;;;;0.20;0.20;;;20.30;99.90;;;;;;4979200;28;20493;-72
2022/09/01 10:14:51;;;;;;;0.20;0.20;;;20.40;99.90;;;;;;4980114;28;20467;-73
2022/09/01 10:17:24;;;;;;;0.20;0.20;;;20.50;99.90;;;;;;4991567;23;20920;-73
2022/09/01 10:19:55;;;;;;;3.40;0.40;;;20.60;99.90;;;;;;4983501;28;20462;-72
2022/09/01 10:22:24;;;;;;;0.40;0.40;;;20.60;99.90;;;;;;4974296;28;20462;-72
2022/09/01 10:24:51;;;;;;;0.30;0.30;;;20.60;99.90;;;;;;4972074;28;20471;-72
2022/09/01 10:27:21;;;;;;;0.23;0.23;;;20.60;99.90;;;;;;4955832;28;20504;-73
2022/09/01 10:29:54;;;;;;;0.40;0.40;;;20.60;99.90;;;;;;4955284;28;20491;-72
2022/09/01 10:32:25;;;;;;;0.57;0.30;;;20.60;99.90;;;;;;4970776;28;20492;-72
2022/09/01 10:34:54;;;;;;;0.30;0.30;;;20.70;99.70;;;;;;4952653;28;20953;-72
2022/09/01 10:37:22;;;;;;;0.20;0.20;;;20.60;99.50;;;;;;4952147;28;20523;-72
2022/09/01 10:40:12;;;;;;;0.30;0.30;;;20.50;99.90;;;;;;4952694;28;20855;-72
2022/09/01 10:42:41;;;;;;;0.57;0.57;;;20.60;99.90;;;;;;4951990;28;20468;-73
2022/09/01 10:45:17;;;;;;;0.30;0.30;;;20.80;99.60;;;;;;4957204;28;20567;-72
2022/09/01 10:47:44;;;;;;;0.30;0.30;;;20.90;99.00;;;;;;4970242;28;20766;-72
2022/09/01 10:50:28;;;;;;;0.30;0.30;;;21.00;98.50;;;;;;4956142;28;20936;-72
2022/09/01 10:53:06;;;;;;;0.67;0.30;;;21.20;98.80;;;;;;4951879;28;20464;-70
2022/09/01 10:55:38;;;;;;;0.20;0.20;;;21.30;98.00;;;;;;4952501;28;20464;-71
2022/09/01 10:58:28;;;;;;;0.20;0.20;;;21.50;97.90;;;;;;4952278;28;21025;-71
2022/09/01 11:00:55;;;;;;;0.30;0.30;;;21.60;97.20;;;;;;4967790;28;20483;-71
2022/09/01 11:03:58;;;;;;;0.40;0.40;;;21.80;97.00;;;;;;4966232;28;20470;-71
2022/09/01 11:06:57;;;;;;;0.20;0.20;;;21.80;97.30;;;;;;4955894;28;20512;-71
2022/09/01 11:09:27;;;;;;;0.20;0.20;;;21.50;97.40;;;;;;4956329;28;20951;-71
2022/09/01 11:12:28;;;;;;;0.40;0.40;;;21.30;97.10;;;;;;4956265;28;20529;-71
2022/09/01 11:14:57;;;;;;;0.20;0.20;;;21.10;97.20;;;;;;4968728;28;20475;-71
2022/09/01 11:17:26;;;;;;;0.53;0.53;;;21.30;97.30;;;;;;4972774;28;20852;-71
2022/09/01 11:20:02;;;;;;;0.40;0.40;;;21.50;97.60;;;;;;4970745;28;20500;-71
2022/09/01 11:22:33;;;;;;;0.40;0.40;;;21.50;97.50;;;;;;4966903;28;20823;-72
2022/09/01 11:25:36;;;;;;;0.67;0.40;;;21.60;97.50;;;;;;4975432;28;20475;-72
2022/09/01 11:28:33;;;;;;;0.40;0.40;;;21.40;97.40;;;;;;4974344;28;20922;-72
2022/09/01 11:31:10;;;;;;;0.40;0.40;;;21.20;97.30;;;;;;4963695;28;20492;-72
2022/09/01 11:33:50;;;;;;;0.50;0.50;;;21.00;97.70;;;;;;4956093;28;20472;-72
2022/09/01 11:36:27;;;;;;;0.53;0.53;;;20.80;97.80;;;;;;4955657;28;20531;-72
2022/09/01 11:39:08;;;;;;;0.60;0.60;;;20.70;97.00;;;;;;4955953;28;20476;-72
2022/09/01 11:41:46;;;;;;;0.40;0.40;;;20.60;97.50;;;;;;4956479;28;20475;-71
2022/09/01 11:44:23;;;;;;;0.30;0.30;;;20.60;98.20;;;;;;4966053;28;20830;-71
2022/09/01 11:46:52;;;;;;;0.50;0.50;;;20.70;98.20;;;;;;4963387;28;20514;-71
2022/09/01 11:49:28;;;;;;;0.30;0.30;;;20.90;97.70;;;;;;4955974;28;20468;-71
2022/09/01 11:51:56;;;;;;;0.30;0.30;;;21.20;97.60;;;;;;4954701;28;20945;-71
2022/09/01 11:54:24;;;;;;;1.43;0.30;;;21.40;97.60;;;;;;4955647;28;20461;-72
2022/09/01 11:56:51;;;;;;;0.20;0.20;;;21.40;95.30;;;;;;4966411;28;20484;-71
2022/09/01 11:59:34;;;;;;;0.27;0.27;;;21.40;94.70;;;;;;4966425;28;20464;-71
2022/09/01 12:02:02;;;;;;;0.40;0.40;;;21.40;94.80;;;;;;4954872;28;20515;-71
2022/09/01 12:04:32;;;;;;;0.30;0.30;;;21.50;95.20;;;;;;4955301;28;20551;-71
2022/09/01 12:07:02;;;;;;;0.40;0.40;;;21.50;95.60;;;;;;4954552;28;20491;-72
2022/09/01 12:09:35;;;;;;;0.30;0.30;;;21.60;95.90;;;;;;4955602;28;20465;-72
2022/09/01 12:12:02;;;;;;;0.37;0.37;;;21.60;95.10;;;;;;4967425;28;20484;-72
2022/09/01 12:14:29;;;;;;;0.50;0.30;;;21.70;95.20;;;;;;4972535;28;20467;-72
2022/09/01 12:16:58;;;;;;;0.20;0.20;;;21.70;95.10;;;;;;4954665;28;20834;-72
2022/09/01 12:19:28;;;;;;;0.20;0.20;;;21.70;94.70;;;;;;4955279;28;20494;-72
2022/09/01 12:22:01;;;;;;;0.20;0.20;;;21.90;95.30;;;;;;4954544;28;20462;-72
2022/09/01 12:24:31;;;;;;;0.20;0.20;;;22.00;94.90;;;;;;4960128;28;20484;-72
2022/09/01 12:27:00;;;;;;;0.20;0.20;;;21.90;94.70;;;;;;4962719;28;20481;-72
2022/09/01 12:29:27;;;;;;;0.30;0.30;;;22.00;94.30;;;;;;4972955;28;20560;-72
2022/09/01 12:31:54;;;;;;;0.30;0.30;;;22.00;94.60;;;;;;4974057;28;20490;-72
2022/09/01 12:34:27;;;;;;;0.30;0.30;;;22.10;94.20;;;;;;4974162;28;20469;-72
2022/09/01 12:37:07;;;;;;;0.20;0.20;;;22.20;94.00;;;;;;4974132;28;20497;-72
2022/09/01 12:39:35;;;;;;;0.40;0.40;;;22.30;94.30;;;;;;4964685;28;20539;-72
2022/09/01 12:42:06;;;;;;;0.30;0.30;;;22.50;92.70;;;;;;4971124;28;20466;-72
2022/09/01 12:44:45;;;;;;;0.30;0.30;;;22.70;92.40;;;;;;4974032;28;20475;-72
2022/09/01 12:47:14;;;;;;;0.20;0.20;;;22.80;91.70;;;;;;4973899;28;20493;-72
2022/09/01 12:49:43;;;;;;;0.30;0.30;;;22.90;92.00;;;;;;4973477;28;20833;-71
2022/09/01 12:52:17;;;;;;;0.30;0.30;;;23.00;91.20;;;;;;4958002;28;21042;-71
2022/09/01 12:54:44;;;;;;;0.20;0.20;;;23.00;91.30;;;;;;4954552;28;20913;-71
2022/09/01 12:57:26;;;;;;;0.20;0.20;;;22.90;91.00;;;;;;4954642;28;20498;-72
2022/09/01 13:00:07;;;;;;;0.23;0.23;;;22.80;91.20;;;;;;4954849;28;20467;-72
2022/09/01 13:02:36;;;;;;;0.20;0.20;;;22.80;91.80;;;;;;4958101;28;20470;-72
2022/09/01 13:05:29;;;;;;;0.20;0.20;;;22.80;91.70;;;;;;4967484;28;20498;-71
2022/09/01 13:07:57;;;;;;;0.30;0.30;;;23.00;91.10;;;;;;4953900;28;20486;-71
2022/09/01 13:10:28;;;;;;;0.60;0.30;;;23.00;91.20;;;;;;4954591;28;20498;-71
2022/09/01 13:12:56;;;;;;;0.20;0.20;;;23.20;91.90;;;;;;4953844;28;21136;-71
2022/09/01 13:15:25;;;;;;;0.30;0.30;;;23.10;91.80;;;;;;4954262;28;20494;-71
2022/09/01 13:17:52;;;;;;;0.20;0.20;;;23.00;92.20;;;;;;4968587;28;20552;-71
2022/09/01 13:20:19;;;;;;;0.33;0.33;;;22.60;92.40;;;;;;4956633;28;20492;-71
2022/09/01 13:22:46;;;;;;;0.20;0.20;;;22.50;92.90;;;;;;4952565;28;20461;-71
2022/09/01 13:25:15;;;;;;;0.20;0.20;;;22.20;93.40;;;;;;4954143;28;20461;-72
2022/09/01 13:27:43;;;;;;;0.37;0.37;;;22.20;93.50;;;;;;4953942;28;20513;-72
2022/09/01 13:30:14;;;;;;;1.70;0.30;;;22.20;93.40;;;;;;4954607;28;20971;-72
2022/09/01 13:32:41;;;;;;;0.30;0.30;;;22.10;93.40;;;;;;4960804;28;21011;-71
2022/09/01 13:35:09;;;;;;;0.40;0.40;;;22.00;93.70;;;;;;4954085;28;20473;-71
2022/09/01 13:37:36;;;;;;;0.57;0.57;;;22.00;94.00;;;;;;4953276;28;20908;-71
2022/09/01 13:40:04;;;;;;;0.30;0.30;;;22.00;94.30;;;;;;4953448;28;20480;-72
2022/09/01 13:42:31;;;;;;;1.77;0.23;;;21.90;94.50;;;;;;4953557;28;20564;-71
2022/09/01 13:44:58;;;;;;;0.20;0.20;;;22.00;94.50;;;;;;4953978;28;20478;-71
2022/09/01 13:47:26;;;;;;;0.80;0.27;;;22.00;94.70;;;;;;4960677;28;20810;-71
2022/09/01 13:49:53;;;;;;;0.30;0.30;;;22.00;95.00;;;;;;4953724;28;20474;-71
2022/09/01 13:52:20;;;;;;;0.20;0.20;;;22.00;94.60;;;;;;4952409;28;20520;-71
2022/09/01 13:54:47;;;;;;;0.40;0.40;;;22.10;94.90;;;;;;4953144;28;20466;-71
2022/09/01 13:57:15;;;;;;;0.20;0.20;;;22.00;94.50;;;;;;4952901;28;20495;-71
2022/09/01 13:59:42;;;;;;;0.30;0.30;;;21.90;94.90;;;;;;4965859;28;20576;-71
2022/09/01 14:02:09;;;;;;;0.57;0.57;;;21.80;95.00;;;;;;4957010;28;20804;-71
2022/09/01 14:04:37;;;;;;;0.30;0.30;;;21.80;95.60;;;;;;4961124;28;20646;-71
2022/09/01 14:07:04;;;;;;;0.30;0.30;;;21.70;95.60;;;;;;4965172;28;20490;-73
2022/09/01 14:09:31;;;;;;;0.30;0.30;;;21.60;96.00;;;;;;4953349;28;20501;-71
2022/09/01 14:11:59;;;;;;;0.97;0.33;;;21.50;96.30;;;;;;4953068;28;20481;-71
2022/09/01 14:14:26;;;;;;;0.37;0.37;;;21.40;96.20;;;;;;4970431;28;20472;-71
2022/09/01 14:16:52;;;;;;;0.30;0.30;;;21.30;95.70;;;;;;4966486;28;20527;-72
2022/09/01 14:19:19;;;;;;;0.30;0.30;;;21.20;95.90;;;;;;4953144;28;20470;-72
2022/09/01 14:21:48;;;;;;;0.57;0.57;;;21.20;95.70;;;;;;4952637;28;20461;-72
2022/09/01 14:24:19;;;;;;;0.30;0.30;;;21.30;95.40;;;;;;4952762;28;20466;-72
2022/09/01 14:26:46;;;;;;;0.37;0.37;;;21.50;95.70;;;;;;4957601;28;20493;-72
2022/09/01 14:29:13;;;;;;;0.20;0.20;;;21.60;95.60;;;;;;4964495;28;20492;-72
2022/09/01 14:31:41;;;;;;;0.30;0.30;;;21.80;95.80;;;;;;4952169;28;21279;-72
2022/09/01 14:34:08;;;;;;;0.20;0.20;;;21.80;96.10;;;;;;4952426;28;20501;-72
2022/09/01 14:36:35;;;;;;;0.20;0.20;;;21.90;95.70;;;;;;4952001;28;20931;-72
2022/09/01 14:39:03;;;;;;;0.30;0.30;;;22.00;96.60;;;;;;4952823;28;20474;-73
2022/09/01 14:41:30;;;;;;;0.30;0.30;;;22.10;96.70;;;;;;4959483;28;20480;-72
2022/09/01 14:44:01;;;;;;;0.60;0.60;;;22.10;96.60;;;;;;4960598;28;20458;-72
2022/09/01 14:46:29;;;;;;;0.20;0.20;;;22.00;96.70;;;;;;4952085;28;20485;-72
2022/09/01 14:48:56;;;;;;;1.77;0.70;;;22.00;96.60;;;;;;4953323;28;20867;-72
2022/09/01 14:51:25;;;;;;;0.60;0.60;;;21.90;97.20;;;;;;4952465;28;20821;-72
2022/09/01 14:53:54;;;;;;;0.40;0.40;;;21.80;97.70;;;;;;4952652;28;20461;-72
2022/09/01 14:56:22;;;;;;;0.30;0.30;;;21.60;97.90;;;;;;4968935;28;20511;-72
2022/09/01 14:58:51;;;;;;;0.30;0.30;;;21.40;98.20;;;;;;4954483;28;20557;-72
2022/09/01 15:01:19;;;;;;;0.60;0.60;;;21.30;98.50;;;;;;4956306;28;20510;-73
2022/09/01 15:03:47;;;;;;;0.37;0.37;;;21.20;99.10;;;;;;4957076;28;20473;-73
2022/09/01 15:06:15;;;;;;;0.30;0.30;;;21.30;98.70;;;;;;4960394;28;20489;-72
2022/09/01 15:08:42;;;;;;;0.20;0.20;;;21.30;98.80;;;;;;4960824;28;20952;-72
2022/09/01 15:11:10;;;;;;;0.30;0.30;;;21.40;98.70;;;;;;4969417;28;20462;-72
2022/09/01 15:13:39;;;;;;;0.50;0.50;;;21.50;97.80;;;;;;4957843;28;20566;-72
2022/09/01 15:16:13;;;;;;;0.40;0.40;;;21.60;97.60;;;;;;4960251;28;20496;-72
2022/09/01 15:18:40;;;;;;;0.40;0.40;;;21.60;97.00;;;;;;4958505;28;20476;-72
2022/09/01 15:21:08;;;;;;;0.40;0.40;;;21.60;96.80;;;;;;4972177;28;20674;-71
2022/09/01 15:23:35;;;;;;;0.37;0.37;;;21.60;96.90;;;;;;4977097;28;20989;-71
2022/09/01 15:26:01;;;;;;;0.30;0.30;;;21.60;97.20;;;;;;4978736;28;20491;-71
2022/09/01 15:28:28;;;;;;;0.50;0.50;;;21.70;97.50;;;;;;4979786;28;20928;-71
2022/09/01 15:30:58;;;;;;;0.50;0.50;;;21.60;97.30;;;;;;4975568;28;20579;-72
2022/09/01 15:33:25;;;;;;;0.20;0.20;;;21.70;97.50;;;;;;4975541;28;20492;-72
2022/09/01 15:35:52;;;;;;;0.30;0.30;;;21.70;97.80;;;;;;4975232;28;20496;-73
2022/09/01 15:38:19;;;;;;;0.40;0.40;;;21.70;98.10;;;;;;4974947;28;20487;-72
2022/09/01 15:40:48;;;;;;;0.33;0.33;;;21.70;97.60;;;;;;4976874;28;20462;-73
2022/09/01 15:43:15;;;;;;;0.30;0.30;;;21.70;97.80;;;;;;4978443;28;20460;-71
2022/09/01 15:45:42;;;;;;;0.30;0.30;;;21.60;97.40;;;;;;4972475;28;20994;-71
2022/09/01 15:48:10;;;;;;;0.30;0.30;;;21.60;97.20;;;;;;4974989;28;20475;-71
2022/09/01 15:50:37;;;;;;;0.40;0.40;;;21.60;97.50;;;;;;4974695;28;20488;-71
2022/09/01 15:53:07;;;;;;;0.30;0.30;;;21.60;97.20;;;;;;4960137;28;20496;-72
2022/09/01 15:55:40;;;;;;;0.50;0.50;;;21.70;97.00;;;;;;4956985;28;20457;-72
2022/09/01 15:58:07;;;;;;;0.30;0.30;;;21.70;96.70;;;;;;4956476;28;20485;-73
2022/09/01 16:00:34;;;;;;;0.30;0.30;;;21.80;96.80;;;;;;4956327;28;20478;-72
2022/09/01 16:03:01;;;;;;;0.60;0.20;;;21.70;96.20;;;;;;4956156;28;20465;-71
2022/09/01 16:05:29;;;;;;;0.30;0.30;;;21.70;96.30;;;;;;4962849;28;20472;-72
2022/09/01 16:07:56;;;;;;;0.40;0.40;;;21.60;96.00;;;;;;4969635;28;20473;-72
2022/09/01 16:10:23;;;;;;;0.30;0.30;;;21.70;96.10;;;;;;4973164;28;20498;-72
2022/09/01 16:12:50;;;;;;;0.50;0.50;;;21.70;95.50;;;;;;4975016;28;20496;-72
2022/09/01 16:15:21;;;;;;;0.20;0.20;;;21.70;95.80;;;;;;4974795;28;20794;-72
2022/09/01 16:18:03;;;;;;;0.40;0.40;;;21.60;95.30;;;;;;5021265;23;20490;-74
2022/09/01 16:20:37;;;;;;;0.40;0.40;;;21.60;95.60;;;;;;4994529;28;20467;-73
2022/09/01 16:23:12;;;;;;;0.30;0.30;;;21.50;96.20;;;;;;4985060;28;20471;-74
2022/09/01 16:25:40;;;;;;;0.40;0.40;;;21.40;96.90;;;;;;4974412;28;20470;-74
2022/09/01 16:28:17;;;;;;;0.30;0.30;;;21.40;97.20;;;;;;4974512;28;20485;-73
2022/09/01 16:30:47;;;;;;;0.33;0.33;;;21.40;97.30;;;;;;4974897;28;20468;-74
2022/09/01 16:33:18;;;;;;;0.50;0.50;;;21.40;97.50;;;;;;4973258;28;20485;-72
2022/09/01 16:35:56;;;;;;;0.30;0.30;;;21.40;97.50;;;;;;4986402;28;20530;-73
2022/09/01 16:38:33;;;;;;;0.53;0.53;;;21.40;97.70;;;;;;4993987;28;20494;-74
2022/09/01 16:41:08;;;;;;;0.30;0.30;;;21.40;98.30;;;;;;4992430;28;20477;-72
2022/09/01 16:43:41;;;;;;;0.27;0.27;;;21.30;98.00;;;;;;4993318;28;20462;-74
2022/09/01 16:46:11;;;;;;;0.30;0.30;;;21.30;98.00;;;;;;4993184;28;20475;-75
2022/09/01 16:48:45;;;;;;;0.20;0.20;;;21.20;98.10;;;;;;4985933;28;20492;-73
2022/09/01 16:51:23;;;;;;;0.47;0.47;;;21.20;98.50;;;;;;4990006;28;20463;-75
2022/09/01 16:54:02;;;;;;;6.53;0.67;;;21.10;98.30;;;;;;4975941;28;20863;-74
2022/09/01 16:56:33;;;;;;;1.70;0.40;;;21.10;98.60;;;;;;4973794;28;20953;-74
2022/09/01 16:59:15;;;;;;;0.37;0.37;;;21.00;98.50;;;;;;4973077;28;20490;-75
2022/09/01 17:01:48;;;;;;;0.57;0.40;;;20.90;99.10;;;;;;4973462;28;20559;-75
2022/09/01 17:04:32;;;;;;;0.70;0.40;;;20.80;98.80;;;;;;4974987;28;20842;-75
2022/09/01 17:07:07;;;;;;;0.23;0.23;;;20.80;99.10;;;;;;4992851;28;20514;-75
2022/09/01 17:09:39;;;;;;;0.30;0.30;;;20.70;99.20;;;;;;4993447;28;20473;-75